Time;durP1;ratioP1;P1;durP2;ratioP2;P2;SDS_P1;SDS_P2;PMS_P1;PMS_P2;Temp;Humidity;BMP_temperature;BMP_pressure;BME280_temperature;BME280_humidity;BME280_pressure;Samples;Min_cycle;Max_cycle;Signal;HPM_P1;HPM_P2
2023/05/26 00:01:22;;;;;;;28.57;1.77;;;;;;;23.68;41.98;100280.66;7312623;19;129296;-38
2023/05/26 00:03:48;;;;;;;33.13;2.03;;;;;;;23.67;42.52;100281.59;7312302;19;129025;-43
2023/05/26 00:06:14;;;;;;;35.63;1.93;;;;;;;23.65;42.70;100275.66;7313558;19;129117;-33
2023/05/26 00:08:40;;;;;;;13.25;1.23;;;;;;;23.64;42.40;100281.88;7312063;19;129705;-40
2023/05/26 00:11:06;;;;;;;11.35;0.88;;;;;;;23.65;42.09;100283.53;7312046;19;129234;-28
2023/05/26 00:13:32;;;;;;;36.20;2.00;;;;;;;23.66;41.99;100279.97;7311714;19;128986;-37
2023/05/26 00:15:57;;;;;;;55.87;3.03;;;;;;;23.64;42.40;100284.50;7319404;19;129244;-33
2023/05/26 00:18:26;;;;;;;30.38;1.75;;;;;;;23.54;42.64;100267.91;7319647;19;129182;-36
2023/05/26 00:20:52;;;;;;;27.05;1.63;;;;;;;23.63;42.82;100274.97;7316769;19;129356;-30
2023/05/26 00:23:17;;;;;;;25.37;1.70;;;;;;;23.68;42.47;100279.81;7319790;19;129190;-31
2023/05/26 00:25:43;;;;;;;50.20;2.75;;;;;;;23.68;42.71;100279.81;7318803;19;128834;-39
2023/05/26 00:28:08;;;;;;;23.23;1.40;;;;;;;23.68;41.89;100275.41;7320291;19;130136;-36
2023/05/26 00:30:33;;;;;;;26.73;1.63;;;;;;;23.66;42.38;100272.09;7316564;19;130324;-28
2023/05/26 00:32:59;;;;;;;5.07;0.68;;;;;;;23.61;42.36;100266.41;7317628;19;128760;-42
2023/05/26 00:35:24;;;;;;;37.28;1.95;;;;;;;23.67;42.36;100284.22;7317834;19;128996;-33
2023/05/26 00:37:50;;;;;;;25.27;1.63;;;;;;;23.68;42.15;100290.31;7320166;19;129964;-37
2023/05/26 00:40:15;;;;;;;7.72;0.75;;;;;;;23.70;42.60;100280.53;7316673;19;129743;-40
2023/05/26 00:42:40;;;;;;;53.80;3.03;;;;;;;23.68;41.95;100279.81;7319710;19;128690;-36
2023/05/26 00:45:06;;;;;;;35.50;1.97;;;;;;;23.66;42.37;100279.97;7318313;19;129244;-36
2023/05/26 00:47:32;;;;;;;24.98;1.38;;;;;;;23.56;42.32;100260.72;7319568;19;130763;-39
2023/05/26 00:49:57;;;;;;;39.40;2.20;;;;;;;23.69;42.22;100282.31;7316773;19;129467;-34
2023/05/26 00:52:23;;;;;;;17.35;1.17;;;;;;;23.68;42.56;100275.41;7316937;19;129174;-35
2023/05/26 00:54:48;;;;;;;43.10;2.43;;;;;;;23.69;42.05;100282.31;7318063;19;128767;-33
2023/05/26 00:57:14;;;;;;;14.93;1.00;;;;;;;23.66;42.39;100282.59;7319329;19;129651;-40
2023/05/26 00:59:40;;;;;;;28.37;1.77;;;;;;;23.66;42.36;100279.97;7316707;19;129333;-35
2023/05/26 01:02:06;;;;;;;44.67;2.30;;;;;;;23.68;41.92;100285.91;7318495;19;129202;-30
2023/05/26 01:04:31;;;;;;;28.87;1.67;;;;;;;23.68;42.21;100280.66;7318120;19;129415;-35
2023/05/26 01:06:56;;;;;;;25.33;1.57;;;;;;;23.69;42.02;100287.56;7319091;19;129601;-35
2023/05/26 01:09:22;;;;;;;32.10;1.80;;;;;;;23.69;42.75;100282.31;7316928;19;129283;-40
2023/05/26 01:11:54;;;;;;;21.30;1.40;;;;;;;23.70;42.63;100273.44;7318775;19;128932;-36
2023/05/26 01:14:31;;;;;;;27.27;1.65;;;;;;;23.68;42.69;100280.66;7317506;19;128958;-33
2023/05/26 01:16:59;;;;;;;;;;;;;;;23.66;41.99;100274.72;7319595;19;129065;-37
2023/05/26 01:19:27;;;;;;;34.85;1.90;;;;;;;23.58;42.42;100261.44;7316968;19;129271;-42
2023/05/26 01:21:58;;;;;;;35.60;2.25;;;;;;;23.68;42.32;100279.81;7317593;19;128800;-40
2023/05/26 01:24:39;;;;;;;41.92;2.20;;;;;;;23.67;41.90;100278.16;7316604;19;128879;-31
2023/05/26 01:27:45;;;;;;;36.65;1.95;;;;;;;23.70;42.01;100276.06;7317452;19;129091;-35
2023/05/26 01:30:10;;;;;;;32.72;1.90;;;;;;;23.67;42.35;100271.09;7313992;19;129421;-35
2023/05/26 01:32:35;;;;;;;43.20;2.47;;;;;;;23.67;42.11;100268.47;7316049;19;128970;-39
2023/05/26 01:35:01;;;;;;;23.83;1.43;;;;;;;23.67;42.15;100259.78;7316084;19;129072;-35
2023/05/26 01:37:26;;;;;;;25.15;1.55;;;;;;;23.65;42.10;100272.22;7316802;19;129046;-33
2023/05/26 01:39:52;;;;;;;49.97;2.67;;;;;;;23.69;42.73;100266.56;7315729;19;130095;-38
2023/05/26 01:42:33;;;;;;;29.47;1.77;;;;;;;23.67;41.95;100273.72;7317435;19;129510;-40
2023/05/26 01:45:26;;;;;;;24.42;1.42;;;;;;;23.70;42.26;100278.69;7317673;19;129085;-30
2023/05/26 01:47:58;;;;;;;35.55;2.10;;;;;;;23.67;42.67;100276.34;7316132;19;129561;-34
2023/05/26 01:50:32;;;;;;;23.33;1.42;;;;;;;23.68;42.30;100271.94;7316293;19;129252;-31
2023/05/26 01:53:02;;;;;;;25.20;1.50;;;;;;;23.66;42.48;100269.47;7313583;19;129567;-43
2023/05/26 01:55:28;;;;;;;28.45;1.67;;;;;;;23.71;42.06;100275.13;7315940;19;129195;-38
2023/05/26 01:57:56;;;;;;;64.07;3.47;;;;;;;23.70;42.44;100276.06;7315365;19;129362;-41
2023/05/26 02:00:25;;;;;;;24.67;1.63;;;;;;;23.63;41.93;100267.09;7315178;19;129107;-41
2023/05/26 02:02:51;;;;;;;48.55;2.55;;;;;;;23.67;42.66;100273.72;7313559;19;129043;-39
2023/05/26 02:05:17;;;;;;;24.47;1.40;;;;;;;23.68;42.86;100269.31;7316840;19;129666;-35
2023/05/26 02:07:42;;;;;;;41.23;2.27;;;;;;;23.69;41.99;100270.97;7315733;19;129059;-40
2023/05/26 02:10:08;;;;;;;25.30;1.47;;;;;;;23.55;42.49;100256.44;7315796;19;129252;-33
2023/05/26 02:12:33;;;;;;;28.60;1.63;;;;;;;23.69;42.35;100273.59;7314673;19;128866;-34
2023/05/26 02:14:58;;;;;;;25.92;1.52;;;;;;;23.67;42.29;100272.91;7315766;19;130604;-37
2023/05/26 02:17:24;;;;;;;43.47;2.33;;;;;;;23.68;41.90;100275.41;7316464;19;129163;-31
2023/05/26 02:19:49;;;;;;;28.02;1.63;;;;;;;23.70;42.42;100272.63;7315053;19;129345;-33
2023/05/26 02:22:15;;;;;;;24.83;1.40;;;;;;;23.70;42.03;100277.91;7316694;19;128971;-38
2023/05/26 02:24:40;;;;;;;56.03;3.20;;;;;;;23.60;42.18;100261.31;7313701;19;129991;-31
2023/05/26 02:27:06;;;;;;;39.33;2.15;;;;;;;23.70;41.90;100281.31;7316108;19;129440;-32
2023/05/26 02:29:32;;;;;;;25.20;1.50;;;;;;;23.69;42.63;100284.94;7315040;19;130559;-28
2023/05/26 02:31:57;;;;;;;25.13;1.57;;;;;;;23.69;41.94;100287.56;7315540;19;129307;-32
2023/05/26 02:34:23;;;;;;;14.07;1.00;;;;;;;23.70;41.83;100293.66;7315450;19;129032;-42
2023/05/26 02:36:49;;;;;;;41.30;2.30;;;;;;;23.70;42.07;100293.66;7314647;19;130268;-35
2023/05/26 02:39:15;;;;;;;21.47;1.27;;;;;;;23.69;42.31;100291.97;7315250;19;129757;-36
2023/05/26 02:41:41;;;;;;;28.90;1.63;;;;;;;23.68;42.28;100285.91;7315463;19;129405;-41
2023/05/26 02:44:06;;;;;;;47.75;2.55;;;;;;;23.58;42.10;100263.22;7316126;19;128836;-32
2023/05/26 02:46:32;;;;;;;47.33;2.60;;;;;;;23.61;42.75;100270.81;7316182;19;130015;-33
2023/05/26 02:49:00;;;;;;;24.43;1.53;;;;;;;23.68;42.64;100287.69;7316062;19;130312;-36
2023/05/26 02:51:25;;;;;;;24.02;1.45;;;;;;;23.71;42.06;100283.00;7314405;19;129636;-42
2023/05/26 02:53:51;;;;;;;54.23;2.90;;;;;;;23.72;42.33;100284.66;7314994;19;129282;-33
2023/05/26 02:56:16;;;;;;;60.65;3.25;;;;;;;23.70;41.97;100278.69;7314712;19;129534;-36
2023/05/26 02:58:41;;;;;;;8.93;0.70;;;;;;;23.70;42.31;100281.31;7314800;19;129518;-35
2023/05/26 03:01:07;;;;;;;30.67;1.73;;;;;;;23.63;42.35;100267.09;7315048;19;129117;-35
2023/05/26 03:03:34;;;;;;;44.70;2.33;;;;;;;23.68;42.27;100275.41;7314289;19;128984;-33
2023/05/26 03:05:59;;;;;;;26.45;1.60;;;;;;;23.69;42.47;100282.31;7314580;19;129623;-35
2023/05/26 03:08:25;;;;;;;36.70;2.03;;;;;;;23.69;42.41;100282.31;7313869;19;130795;-32
2023/05/26 03:10:50;;;;;;;30.43;1.77;;;;;;;23.69;42.34;100282.31;7311654;19;129446;-35
2023/05/26 03:13:16;;;;;;;44.65;2.35;;;;;;;23.69;42.39;100282.31;7311947;19;128870;-34
2023/05/26 03:15:42;;;;;;;25.50;1.42;;;;;;;23.71;42.26;100280.38;7314163;19;129183;-28
2023/05/26 03:18:08;;;;;;;26.30;1.60;;;;;;;23.68;42.68;100285.91;7314393;19;130915;-38
2023/05/26 03:20:34;;;;;;;12.37;0.97;;;;;;;23.66;42.10;100273.88;7310935;19;129090;-35
2023/05/26 03:22:59;;;;;;;57.77;3.07;;;;;;;23.69;41.96;100276.22;7312881;19;129239;-39
2023/05/26 03:25:24;;;;;;;19.40;1.25;;;;;;;23.61;42.57;100257.69;7313079;19;129111;-34
2023/05/26 03:27:50;;;;;;;25.17;1.40;;;;;;;23.68;42.86;100278.03;7313835;19;129796;-34
2023/05/26 03:30:15;;;;;;;79.68;4.32;;;;;;;23.67;42.12;100273.72;7311193;19;129406;-37
2023/05/26 03:32:41;;;;;;;26.15;1.50;;;;;;;23.69;42.62;100277.06;7312263;19;128783;-42
2023/05/26 03:35:07;;;;;;;37.70;2.23;;;;;;;23.70;42.26;100270.81;7312850;19;129804;-35
2023/05/26 03:37:32;;;;;;;28.85;1.83;;;;;;;23.71;42.12;100272.50;7313036;19;129468;-35
2023/05/26 03:39:58;;;;;;;35.33;2.10;;;;;;;23.68;42.55;100270.16;7312003;19;129401;-31
2023/05/26 03:42:23;;;;;;;69.33;3.67;;;;;;;23.59;42.24;100247.34;7311532;19;128775;-43
2023/05/26 03:44:49;;;;;;;42.07;2.40;;;;;;;23.70;42.50;100262.94;7313466;19;129559;-30
2023/05/26 03:47:14;;;;;;;32.20;1.77;;;;;;;23.71;42.37;100269.88;7313071;19;129215;-36
2023/05/26 03:49:40;;;;;;;45.88;2.60;;;;;;;23.70;42.20;100268.19;7307455;19;129062;-35
2023/05/26 03:52:06;;;;;;;16.63;1.20;;;;;;;23.68;42.14;100264.91;7311659;19;129343;-41
2023/05/26 03:54:31;;;;;;;29.07;1.70;;;;;;;23.71;42.50;100264.63;7313012;19;130190;-37
2023/05/26 03:56:56;;;;;;;12.63;0.90;;;;;;;23.69;42.23;100263.94;7311842;19;129148;-33
2023/05/26 03:59:22;;;;;;;56.90;2.87;;;;;;;23.69;42.78;100266.56;7313124;19;129513;-34
2023/05/26 04:01:48;;;;;;;27.23;1.52;;;;;;;23.67;42.70;100267.66;7313457;19;128999;-41
2023/05/26 04:04:14;;;;;;;32.42;2.05;;;;;;;23.68;42.15;100266.69;7312250;19;129107;-32
2023/05/26 04:06:39;;;;;;;29.33;1.83;;;;;;;23.67;42.38;100263.22;7312319;19;129890;-30
2023/05/26 04:09:05;;;;;;;47.47;2.53;;;;;;;23.57;42.51;100245.81;7312230;19;129099;-35
2023/05/26 04:11:30;;;;;;;18.95;1.13;;;;;;;23.67;42.28;100265.84;7312985;19;128985;-35
2023/05/26 04:13:56;;;;;;;41.42;2.55;;;;;;;23.71;42.57;100267.25;7311882;19;129317;-41
2023/05/26 04:16:21;;;;;;;20.47;1.23;;;;;;;23.69;42.04;100261.31;7311502;19;129323;-33
2023/05/26 04:18:47;;;;;;;49.23;2.70;;;;;;;23.69;42.46;100263.09;7310195;19;129493;-36
2023/05/26 04:21:12;;;;;;;33.93;2.03;;;;;;;23.68;42.24;100269.31;7310736;19;129077;-43
2023/05/26 04:23:38;;;;;;;51.77;2.90;;;;;;;23.71;41.93;100269.88;7312166;19;129487;-38
2023/05/26 04:26:03;;;;;;;36.50;2.03;;;;;;;23.69;42.34;100271.81;7307572;19;131561;-33
2023/05/26 04:28:29;;;;;;;32.63;1.75;;;;;;;23.58;42.26;100253.56;7313954;19;129485;-40
2023/05/26 04:30:55;;;;;;;46.38;2.72;;;;;;;23.67;42.03;100273.72;7308688;19;129226;-39
2023/05/26 04:33:22;;;;;;;28.15;1.67;;;;;;;23.70;42.29;100273.44;7307325;19;129945;-28
2023/05/26 04:35:47;;;;;;;42.00;2.33;;;;;;;23.67;42.38;100278.97;7309362;19;130147;-38
2023/05/26 04:38:13;;;;;;;42.53;2.40;;;;;;;23.67;42.03;100284.22;7308229;19;129526;-43
2023/05/26 04:40:39;;;;;;;50.10;2.83;;;;;;;23.72;42.60;100286.44;7309974;19;129593;-30
2023/05/26 04:43:05;;;;;;;21.33;1.40;;;;;;;23.73;42.17;100288.97;7309828;19;129176;-36
2023/05/26 04:45:31;;;;;;;39.93;2.17;;;;;;;23.72;41.81;100292.53;7309445;19;129296;-33
2023/05/26 04:47:56;;;;;;;57.20;3.17;;;;;;;23.71;42.12;100301.38;7309577;19;129016;-35
2023/05/26 04:50:23;;;;;;;30.30;1.73;;;;;;;23.63;42.10;100287.28;7307414;19;129444;-38
2023/05/26 04:52:49;;;;;;;68.47;3.83;;;;;;;23.64;41.85;100289.75;7308406;19;130172;-33
2023/05/26 04:55:14;;;;;;;50.08;2.70;;;;;;;23.71;42.10;100301.38;7304450;19;129191;-31
2023/05/26 04:57:40;;;;;;;213.10;11.37;;;;;;;23.73;42.17;100303.88;7305469;19;129991;-41
2023/05/26 05:00:06;;;;;;;38.53;2.30;;;;;;;23.71;42.49;100309.25;7304451;19;130839;-38
2023/05/26 05:02:31;;;;;;;22.73;1.43;;;;;;;23.74;42.19;100308.97;7317879;19;129559;-41
2023/05/26 05:04:56;;;;;;;42.10;2.25;;;;;;;23.63;42.10;100293.38;7314114;19;129659;-39
2023/05/26 05:07:22;;;;;;;43.30;2.63;;;;;;;23.73;42.08;100303.88;7312562;19;129118;-39
2023/05/26 05:09:47;;;;;;;41.73;2.50;;;;;;;23.72;41.93;100313.53;7315070;19;129055;-39
2023/05/26 05:12:12;;;;;;;45.78;2.67;;;;;;;23.72;42.01;100317.94;7313865;19;130651;-42
2023/05/26 05:14:38;;;;;;;53.03;2.90;;;;;;;23.69;42.31;100313.81;7313983;19;129614;-38
2023/05/26 05:17:03;;;;;;;25.20;1.60;;;;;;;23.60;42.51;100283.09;7317198;19;130274;-43
2023/05/26 05:19:28;;;;;;;58.38;3.38;;;;;;;23.71;41.85;100311.88;7306444;19;129366;-40
2023/05/26 05:21:54;;;;;;;62.17;3.53;;;;;;;23.73;42.47;100311.75;7315139;19;130145;-40
2023/05/26 05:24:19;;;;;;;19.53;1.20;;;;;;;23.70;42.59;100315.47;7311803;19;129815;-38
2023/05/26 05:26:44;;;;;;;30.50;1.80;;;;;;;23.66;41.98;100319.34;7314714;19;129148;-41
2023/05/26 05:29:10;;;;;;;27.37;1.67;;;;;;;23.69;42.31;100313.81;7313362;19;129579;-37
2023/05/26 05:31:35;;;;;;;83.13;4.57;;;;;;;23.60;42.20;100305.94;7313138;19;130843;-41
2023/05/26 05:34:01;;;;;;;63.13;3.67;;;;;;;23.67;42.50;100323.63;7315916;19;129482;-42
2023/05/26 05:36:26;;;;;;;69.00;3.85;;;;;;;23.71;41.92;100338.13;7311642;19;130139;-41
2023/05/26 05:38:52;;;;;;;21.77;1.57;;;;;;;23.70;42.43;100341.72;7312221;19;129877;-40
2023/05/26 05:41:17;;;;;;;51.22;2.92;;;;;;;23.60;42.12;100325.09;7317176;19;129947;-39
2023/05/26 05:43:43;;;;;;;60.37;3.47;;;;;;;23.72;42.28;100342.41;7315819;19;130295;-39
2023/05/26 05:46:08;;;;;;;36.53;2.03;;;;;;;23.71;41.83;100340.75;7316208;19;129005;-42
2023/05/26 05:48:33;;;;;;;24.33;1.55;;;;;;;23.71;42.17;100343.38;7314794;19;129349;-38
2023/05/26 05:51:00;;;;;;;29.73;1.80;;;;;;;23.70;41.92;100340.91;7316599;19;129489;-40
2023/05/26 05:53:26;;;;;;;27.55;1.77;;;;;;;23.70;42.21;100340.91;7313519;19;131067;-38
2023/05/26 05:55:51;;;;;;;35.77;2.17;;;;;;;23.71;41.92;100340.75;7314959;19;129341;-41
2023/05/26 05:58:16;;;;;;;33.73;2.03;;;;;;;23.69;41.91;100350.56;7313812;19;129457;-39
2023/05/26 06:00:42;;;;;;;56.67;3.23;;;;;;;23.72;42.17;100355.53;7316108;19;129607;-37
2023/05/26 06:03:07;;;;;;;33.03;1.92;;;;;;;23.62;41.99;100344.19;7315430;19;129313;-41
2023/05/26 06:05:32;;;;;;;16.30;0.98;;;;;;;23.68;41.85;100353.31;7315146;19;129420;-41
2023/05/26 06:07:58;;;;;;;34.83;1.97;;;;;;;23.68;42.22;100362.03;7315035;19;129030;-37
2023/05/26 06:10:23;;;;;;;37.07;2.27;;;;;;;23.71;41.97;100361.78;7315328;19;129350;-39
2023/05/26 06:12:48;;;;;;;28.43;1.73;;;;;;;23.69;42.21;100366.31;7311535;19;129207;-37
2023/05/26 06:15:14;;;;;;;32.47;2.03;;;;;;;23.59;42.66;100347.09;7314155;19;129495;-36
2023/05/26 06:17:39;;;;;;;53.33;3.10;;;;;;;23.73;41.91;100362.47;7314917;19;129445;-39
2023/05/26 06:20:05;;;;;;;22.00;1.37;;;;;;;23.72;42.14;100366.03;7315709;19;129164;-42
2023/05/26 06:22:31;;;;;;;32.60;1.97;;;;;;;23.69;41.79;100366.31;7313939;19;129391;-43
2023/05/26 06:24:56;;;;;;;26.77;1.67;;;;;;;23.71;42.21;100367.03;7312528;19;129274;-41
2023/05/26 06:27:21;;;;;;;64.78;3.65;;;;;;;23.59;42.35;100348.88;7314890;19;129788;-37
2023/05/26 06:29:47;;;;;;;41.33;2.55;;;;;;;23.68;41.97;100356.78;7311920;19;129303;-38
2023/05/26 06:32:12;;;;;;;23.15;1.55;;;;;;;23.70;41.92;100364.53;7313176;19;129487;-37
2023/05/26 06:34:37;;;;;;;32.88;2.00;;;;;;;23.73;42.21;100366.88;7312152;19;129467;-37
2023/05/26 06:37:03;;;;;;;51.80;2.90;;;;;;;23.74;42.67;100366.75;7314461;19;129281;-38
2023/05/26 06:39:28;;;;;;;51.95;2.80;;;;;;;23.71;42.18;100364.41;7310973;19;129323;-38
2023/05/26 06:41:54;;;;;;;32.95;1.98;;;;;;;23.72;42.40;100363.41;7313348;19;129156;-41
2023/05/26 06:44:19;;;;;;;33.50;1.97;;;;;;;23.58;42.05;100348.06;7312878;19;129018;-42
2023/05/26 06:46:44;;;;;;;52.53;2.97;;;;;;;23.72;42.19;100368.66;7313571;19;129222;-39
2023/05/26 06:49:10;;;;;;;22.83;1.40;;;;;;;23.72;42.45;100376.53;7311663;19;129619;-41
2023/05/26 06:51:35;;;;;;;32.38;2.00;;;;;;;23.70;42.38;100375.84;7313116;19;130219;-40
2023/05/26 06:54:01;;;;;;;66.93;4.07;;;;;;;23.73;42.44;100372.13;7309704;19;128819;-36
2023/05/26 06:56:26;;;;;;;38.50;2.15;;;;;;;23.72;42.04;100373.91;7314059;19;129886;-39
2023/05/26 06:58:52;;;;;;;34.80;2.08;;;;;;;23.73;41.86;100382.63;7311614;19;129220;-36
2023/05/26 07:01:18;;;;;;;19.30;1.33;;;;;;;23.71;42.20;100381.94;7311315;19;129705;-39
2023/05/26 07:03:43;;;;;;;52.60;3.22;;;;;;;23.66;41.84;100382.34;7313294;19;128872;-39
2023/05/26 07:06:09;;;;;;;39.90;2.50;;;;;;;23.65;41.88;100385.91;7312646;19;129104;-39
2023/05/26 07:08:34;;;;;;;23.77;1.40;;;;;;;23.72;42.58;100387.03;7312213;19;129284;-39
2023/05/26 07:11:00;;;;;;;21.23;1.37;;;;;;;23.71;42.14;100385.41;7312801;19;129434;-42
2023/05/26 07:13:25;;;;;;;52.55;2.95;;;;;;;23.70;41.70;100386.34;7310840;19;129047;-43
2023/05/26 07:15:50;;;;;;;55.13;3.40;;;;;;;23.71;42.17;100400.31;7312628;19;129476;-43
2023/05/26 07:18:15;;;;;;;18.38;1.30;;;;;;;23.72;42.42;100389.69;7312447;19;129680;-41
2023/05/26 07:20:41;;;;;;;40.28;2.53;;;;;;;23.61;42.58;100374.03;7312480;19;129196;-44
2023/05/26 07:23:06;;;;;;;46.13;2.40;;;;;;;23.72;42.12;100389.69;7312775;19;129145;-37
2023/05/26 07:25:32;;;;;;;21.73;1.33;;;;;;;23.73;41.67;100388.72;7313051;19;129703;-45
2023/05/26 07:27:57;;;;;;;26.10;1.67;;;;;;;23.72;42.58;100389.69;7311963;19;129918;-43
2023/05/26 07:30:22;;;;;;;35.85;2.10;;;;;;;23.72;42.10;100392.31;7313481;19;129075;-40
2023/05/26 07:32:48;;;;;;;52.22;3.00;;;;;;;23.71;41.89;100385.41;7312192;19;128856;-45
2023/05/26 07:35:13;;;;;;;45.87;2.87;;;;;;;23.72;42.24;100389.69;7312263;19;129102;-45
2023/05/26 07:37:38;;;;;;;34.90;2.03;;;;;;;23.58;42.59;100366.44;7311718;19;130127;-42
2023/05/26 07:40:05;;;;;;;39.80;2.27;;;;;;;23.73;42.43;100388.72;7313372;19;131349;-46
2023/05/26 07:42:31;;;;;;;28.60;1.63;;;;;;;23.70;41.88;100388.16;7313850;19;129191;-43
2023/05/26 07:44:56;;;;;;;22.55;1.45;;;;;;;23.72;42.63;100376.53;7311576;19;130256;-37
2023/05/26 07:47:22;;;;;;;30.23;1.90;;;;;;;23.59;42.24;100365.47;7311765;19;130053;-42
2023/05/26 07:49:48;;;;;;;79.13;4.33;;;;;;;23.70;42.60;100380.28;7308529;19;129359;-44
2023/05/26 07:52:13;;;;;;;45.58;2.58;;;;;;;23.59;41.97;100362.00;7311288;19;129375;-41
2023/05/26 07:54:40;;;;;;;19.38;1.40;;;;;;;23.72;42.14;100383.59;7310955;19;128827;-43
2023/05/26 07:57:05;;;;;;;34.00;2.10;;;;;;;23.71;42.51;100380.16;7311663;19;129054;-37
2023/05/26 07:59:30;;;;;;;43.38;2.42;;;;;;;23.70;42.52;100377.66;7308976;19;129379;-38
2023/05/26 08:01:56;;;;;;;21.50;1.35;;;;;;;23.72;42.05;100373.91;7311698;19;129237;-39
2023/05/26 08:04:21;;;;;;;18.30;1.38;;;;;;;23.73;41.87;100378.22;7309575;19;128963;-39
2023/05/26 08:06:46;;;;;;;39.63;2.43;;;;;;;23.63;42.49;100364.25;7310298;19;129603;-42
2023/05/26 08:09:12;;;;;;;46.83;2.60;;;;;;;23.73;42.17;100385.25;7309289;19;129664;-39
2023/05/26 08:11:37;;;;;;;33.07;1.93;;;;;;;23.61;41.87;100367.94;7312087;19;129861;-41
2023/05/26 08:14:02;;;;;;;45.80;2.87;;;;;;;23.71;42.19;100389.81;7307585;19;129162;-36
2023/05/26 08:16:28;;;;;;;29.23;1.67;;;;;;;23.63;42.45;100377.38;7310520;19;129495;-36
2023/05/26 08:18:53;;;;;;;51.30;2.93;;;;;;;23.71;41.81;100390.66;7308375;19;129144;-44
2023/05/26 08:21:18;;;;;;;34.97;2.20;;;;;;;23.72;42.27;100384.41;7311547;19;128912;-43
2023/05/26 08:23:44;;;;;;;47.80;2.85;;;;;;;23.72;42.42;100380.97;7310078;19;129132;-41
2023/05/26 08:26:09;;;;;;;35.75;2.00;;;;;;;23.72;42.42;100380.97;7310286;19;129549;-37
2023/05/26 08:28:35;;;;;;;41.70;2.28;;;;;;;23.68;42.50;100376.97;7309867;19;130305;-44
2023/05/26 08:31:01;;;;;;;38.03;2.33;;;;;;;23.73;42.12;100374.75;7311041;19;129283;-39
2023/05/26 08:33:26;;;;;;;20.15;1.15;;;;;;;23.73;42.24;100377.38;7309195;19;129007;-41
2023/05/26 08:35:52;;;;;;;69.22;3.97;;;;;;;23.72;42.03;100368.66;7312951;19;129250;-43
2023/05/26 08:38:17;;;;;;;35.60;2.13;;;;;;;23.72;42.48;100375.72;7316822;19;129086;-38
2023/05/26 08:40:42;;;;;;;35.93;2.13;;;;;;;23.71;42.12;100374.91;7317360;19;129086;-37
2023/05/26 08:43:11;;;;;;;28.03;1.60;;;;;;;23.73;42.20;100366.88;7317657;19;128792;-36
2023/05/26 08:45:37;;;;;;;26.17;1.45;;;;;;;23.71;42.19;100371.44;7316140;19;129362;-37
2023/05/26 08:48:05;;;;;;;26.73;1.70;;;;;;;23.72;42.19;100370.44;7317382;19;129189;-40
2023/05/26 08:50:30;;;;;;;26.80;1.60;;;;;;;23.72;41.64;100376.53;7317664;19;129503;-39
2023/05/26 08:52:57;;;;;;;27.67;1.70;;;;;;;23.71;41.75;100372.28;7316429;19;129333;-37
2023/05/26 08:55:22;;;;;;;47.47;2.75;;;;;;;23.73;41.87;100372.97;7316057;19;129386;-42
2023/05/26 08:57:48;;;;;;;41.40;2.43;;;;;;;23.72;42.11;100381.81;7317712;19;129389;-37
2023/05/26 09:00:16;;;;;;;19.02;1.30;;;;;;;23.61;42.18;100362.69;7316869;19;128828;-38
2023/05/26 09:02:42;;;;;;;30.92;2.03;;;;;;;23.59;42.19;100354.97;7316743;19;128856;-38
2023/05/26 09:05:08;;;;;;;54.07;2.83;;;;;;;23.69;42.61;100379.44;7315550;19;129372;-36
2023/05/26 09:07:33;;;;;;;29.03;1.57;;;;;;;23.58;42.39;100361.19;7317266;19;129467;-42
2023/05/26 09:10:24;;;;;;;33.95;2.05;;;;;;;23.71;42.30;100380.16;7316548;19;129033;-42
2023/05/26 09:13:02;;;;;;;34.67;2.08;;;;;;;23.73;42.10;100387.88;7316126;19;129378;-38
2023/05/26 09:15:27;;;;;;;;;;;;;;;23.57;42.34;100367.38;7315977;19;130904;-40
2023/05/26 09:17:52;;;;;;;49.50;2.77;;;;;;;23.66;42.49;100382.34;7316186;19;129094;-39
2023/05/26 09:20:18;;;;;;;44.05;2.45;;;;;;;23.70;41.74;100388.97;7317424;19;129412;-40
2023/05/26 09:22:45;;;;;;;41.67;2.60;;;;;;;23.70;42.03;100386.34;7316897;19;129398;-40
2023/05/26 09:25:10;;;;;;;29.23;1.70;;;;;;;23.71;42.84;100390.66;7315910;19;131440;-35
2023/05/26 09:27:36;;;;;;;28.07;1.70;;;;;;;23.72;41.81;100381.81;7316163;19;129584;-36
2023/05/26 09:30:04;;;;;;;43.90;2.47;;;;;;;23.71;42.11;100381.94;7317010;19;129668;-35
2023/05/26 09:32:31;;;;;;;45.28;2.63;;;;;;;23.70;41.72;100388.97;7316546;19;129219;-40
2023/05/26 09:35:00;;;;;;;30.35;1.83;;;;;;;23.71;42.35;100390.66;7315930;19;130107;-42
2023/05/26 09:37:29;;;;;;;36.67;2.10;;;;;;;23.73;42.18;100387.88;7315656;19;129674;-40
2023/05/26 09:40:14;;;;;;;52.20;3.03;;;;;;;23.73;42.51;100388.72;7316665;19;129174;-43
2023/05/26 09:42:47;;;;;;;49.20;2.67;;;;;;;23.71;42.40;100385.41;7315807;19;129064;-37
2023/05/26 09:45:13;;;;;;;31.75;1.98;;;;;;;23.73;41.87;100386.09;7316546;19;130156;-39
2023/05/26 09:47:38;;;;;;;29.60;1.73;;;;;;;23.70;41.90;100388.97;7315122;19;129589;-41
2023/05/26 09:50:07;;;;;;;13.20;0.93;;;;;;;23.61;41.89;100376.66;7316864;19;128821;-41
2023/05/26 09:52:34;;;;;;;43.97;2.47;;;;;;;23.59;41.83;100369.88;7315562;19;129265;-43
2023/05/26 09:54:59;;;;;;;15.40;1.08;;;;;;;23.67;41.90;100384.00;7315621;19;130221;-41
2023/05/26 09:57:26;;;;;;;33.63;1.87;;;;;;;23.69;42.47;100389.94;7315331;19;130243;-41
2023/05/26 09:59:53;;;;;;;40.60;2.55;;;;;;;23.70;42.17;100388.97;7315276;19;129234;-40
2023/05/26 10:02:22;;;;;;;45.78;2.50;;;;;;;23.72;41.82;100387.03;7314737;19;128967;-40
2023/05/26 10:04:49;;;;;;;41.65;2.47;;;;;;;23.70;42.23;100381.09;7314292;19;129471;-37
2023/05/26 10:07:21;;;;;;;53.75;3.00;;;;;;;23.72;41.87;100381.81;7315397;19;130408;-39
2023/05/26 10:09:58;;;;;;;42.95;2.53;;;;;;;23.72;42.13;100381.81;7312413;19;128926;-40
2023/05/26 10:12:34;;;;;;;34.30;1.97;;;;;;;23.70;42.03;100383.72;7314487;19;129247;-43
2023/05/26 10:15:01;;;;;;;28.05;1.63;;;;;;;23.72;42.51;100376.53;7314376;19;129210;-40
2023/05/26 10:17:27;;;;;;;;;;;;;;;23.70;41.89;100377.66;7316361;19;129242;-42
2023/05/26 10:19:54;;;;;;;35.92;2.22;;;;;;;23.72;42.14;100373.09;7314694;19;128937;-42
2023/05/26 10:22:50;;;;;;;42.28;2.65;;;;;;;23.69;42.10;100376.81;7313753;19;129336;-41
2023/05/26 10:25:16;;;;;;;33.20;2.03;;;;;;;23.71;41.98;100367.03;7314122;19;129310;-38
2023/05/26 10:28:04;;;;;;;21.37;1.50;;;;;;;23.68;42.62;100359.41;7314642;19;131430;-40
2023/05/26 10:30:31;;;;;;;22.83;1.45;;;;;;;23.69;42.08;100362.84;7315439;19;128977;-39
2023/05/26 10:33:07;;;;;;;30.90;1.70;;;;;;;23.73;42.25;100362.47;7314449;19;129216;-42
2023/05/26 10:35:33;;;;;;;28.33;1.58;;;;;;;23.74;42.12;100360.66;7314382;19;129435;-41
2023/05/26 10:38:01;;;;;;;21.87;1.40;;;;;;;23.59;42.13;100339.22;7313947;19;129380;-42
2023/05/26 10:40:27;;;;;;;24.65;1.40;;;;;;;23.71;42.02;100358.31;7315268;19;129028;-41
2023/05/26 10:43:21;;;;;;;59.92;3.40;;;;;;;23.74;41.83;100353.63;7315349;19;129267;-43
2023/05/26 10:45:54;;;;;;;51.78;2.85;;;;;;;23.74;42.36;100358.88;7311822;19;129220;-40
2023/05/26 10:48:21;;;;;;;44.63;2.55;;;;;;;23.73;42.07;100362.47;7313678;19;130147;-42
2023/05/26 10:50:59;;;;;;;40.38;2.47;;;;;;;23.71;42.37;100367.03;7314277;19;129022;-37
2023/05/26 10:53:35;;;;;;;27.77;1.85;;;;;;;23.74;41.84;100358.03;7312513;19;128919;-37
2023/05/26 10:56:05;;;;;;;25.17;1.50;;;;;;;23.71;42.22;100353.91;7314216;19;129474;-40
2023/05/26 11:01:12;;;;;;;29.60;2.00;;;;;;;23.58;41.88;100332.31;7311819;19;128858;-32
2023/05/26 11:03:43;;;;;;;40.25;2.20;;;;;;;23.73;42.47;100345.88;7315916;19;128704;-34
2023/05/26 11:06:10;;;;;;;29.48;1.63;;;;;;;23.72;42.57;100355.53;7311079;19;129401;-37
2023/05/26 11:08:47;;;;;;;22.75;1.48;;;;;;;23.71;42.48;100356.53;7313949;19;129823;-32
2023/05/26 11:11:14;;;;;;;25.00;1.43;;;;;;;23.70;42.17;100346.97;7315604;19;129169;-39